Time;durP1;ratioP1;P1;durP2;ratioP2;P2;SDS_P1;SDS_P2;PMS_P1;PMS_P2;Temp;Humidity;BMP_temperature;BMP_pressure;BME280_temperature;BME280_humidity;BME280_pressure;Samples;Min_cycle;Max_cycle;Signal;HPM_P1;HPM_P2
2021/08/24 00:02:20;;;;;;;9.73;7.30;;;;;;;20.41;70.08;100508.03;4986147;28;20050;-72
2021/08/24 00:04:46;;;;;;;18.95;7.85;;;;;;;20.56;69.46;100530.69;4974904;28;20111;-70
2021/08/24 00:07:11;;;;;;;12.15;8.07;;;;;;;20.51;69.40;100528.09;4975834;28;20496;-75
2021/08/24 00:09:37;;;;;;;14.30;7.10;;;;;;;20.29;69.66;100513.28;4993805;28;20404;-67
2021/08/24 00:12:04;;;;;;;9.98;7.30;;;;;;;20.41;69.72;100517.63;4994582;28;20077;-67
2021/08/24 00:14:31;;;;;;;12.10;7.38;;;;;;;20.37;69.59;100511.50;4995069;28;20457;-73
2021/08/24 00:16:59;;;;;;;13.35;8.00;;;;;;;20.44;69.30;100515.84;4993619;28;20034;-70
2021/08/24 00:19:25;;;;;;;17.20;7.97;;;;;;;20.43;69.13;100511.50;4994757;28;20460;-66
2021/08/24 00:21:52;;;;;;;14.45;7.25;;;;;;;20.10;69.63;100474.00;4989952;28;20045;-71
2021/08/24 00:24:18;;;;;;;13.93;7.88;;;;;;;20.35;69.55;100508.91;4976632;28;20030;-71
2021/08/24 00:26:44;;;;;;;16.52;8.48;;;;;;;20.23;69.50;100513.31;4976474;28;20035;-68
2021/08/24 00:29:10;;;;;;;10.15;7.90;;;;;;;20.17;69.48;100507.19;4979766;28;20103;-68
2021/08/24 00:31:36;;;;;;;11.68;8.00;;;;;;;19.72;70.40;100461.81;4978122;28;20026;-70
2021/08/24 00:34:01;;;;;;;16.60;8.18;;;;;;;20.03;70.13;100493.25;4993376;28;20596;-68
2021/08/24 00:36:27;;;;;;;10.63;7.97;;;;;;;20.10;69.43;100486.22;4976911;28;20027;-69
2021/08/24 00:38:52;;;;;;;11.57;7.90;;;;;;;20.06;69.65;100490.59;5008768;28;20092;-67
2021/08/24 00:41:19;;;;;;;11.77;8.10;;;;;;;19.88;70.47;100510.72;4975716;28;20062;-66
2021/08/24 00:43:46;;;;;;;13.35;7.95;;;;;;;19.53;71.79;100482.75;4989835;28;20452;-68
2021/08/24 00:46:23;;;;;;;13.23;7.85;;;;;;;19.53;71.91;100488.00;4994625;28;20157;-66
2021/08/24 00:48:49;;;;;;;13.60;7.72;;;;;;;19.60;70.90;100459.19;4994378;28;20030;-68
2021/08/24 00:51:18;;;;;;;10.07;8.38;;;;;;;19.90;70.95;100500.25;4994317;28;20416;-68
2021/08/24 00:53:44;;;;;;;10.90;7.57;;;;;;;19.91;70.33;100482.78;4988226;28;20041;-67
2021/08/24 00:56:10;;;;;;;11.88;7.88;;;;;;;19.60;70.33;100412.94;4994398;28;20472;-66
2021/08/24 00:58:37;;;;;;;14.38;7.97;;;;;;;19.98;71.04;100492.38;4994284;28;20460;-65
2021/08/24 01:01:03;;;;;;;9.02;7.72;;;;;;;19.88;71.93;100494.13;4993854;28;20473;-67
2021/08/24 01:03:43;;;;;;;10.82;7.68;;;;;;;19.28;73.22;100457.44;4994080;28;20038;-69
2021/08/24 01:06:22;;;;;;;11.60;8.10;;;;;;;19.39;73.71;100493.22;4994106;28;20029;-69
2021/08/24 01:09:06;;;;;;;11.70;8.57;;;;;;;19.45;73.01;100487.13;4994251;28;20039;-68
2021/08/24 01:11:55;;;;;;;12.18;7.88;;;;;;;19.34;72.55;100491.47;4982769;28;20022;-69
2021/08/24 01:15:02;;;;;;;13.98;7.70;;;;;;;19.46;71.81;100483.63;4977016;28;20054;-70
2021/08/24 01:17:36;;;;;;;11.55;8.18;;;;;;;19.06;71.90;100436.47;4974158;28;20542;-70
2021/08/24 01:20:15;;;;;;;15.68;8.52;;;;;;;19.24;72.14;100486.22;4974766;28;20039;-69
2021/08/24 01:23:05;;;;;;;10.60;7.50;;;;;;;19.23;71.99;100492.31;4974107;28;20050;-66
2021/08/24 01:25:55;;;;;;;13.52;7.53;;;;;;;19.28;71.24;100484.50;4976444;28;20089;-65
2021/08/24 01:28:27;;;;;;;11.82;8.00;;;;;;;19.36;71.00;100487.97;4980380;28;20378;-68
2021/08/24 01:31:40;;;;;;;12.45;7.88;;;;;;;19.11;71.13;100497.53;4987339;28;20125;-65
2021/08/24 01:34:32;;;;;;;10.13;7.57;;;;;;;18.71;71.42;100439.84;5007945;28;20556;-69
2021/08/24 01:37:34;;;;;;;11.07;7.65;;;;;;;19.14;70.72;100488.81;5009400;28;20034;-67
2021/08/24 01:40:10;;;;;;;10.25;7.60;;;;;;;19.41;69.75;100485.38;5008314;28;20504;-68
2021/08/24 01:42:36;;;;;;;13.40;8.13;;;;;;;19.52;69.08;100483.63;5009075;28;20064;-68
2021/08/24 01:45:06;;;;;;;10.43;7.53;;;;;;;19.23;70.02;100484.47;4979230;28;20135;-73
2021/08/24 01:47:46;;;;;;;11.30;7.45;;;;;;;19.40;69.39;100474.03;5000084;28;20022;-67
2021/08/24 01:50:19;;;;;;;11.88;7.68;;;;;;;19.46;69.32;100475.75;4995653;28;20034;-68
2021/08/24 01:52:50;;;;;;;10.85;7.28;;;;;;;19.34;68.98;100449.56;4999954;28;20022;-74
2021/08/24 01:55:30;;;;;;;10.60;7.70;;;;;;;19.31;69.03;100473.16;4995807;28;20043;-68
2021/08/24 01:58:11;;;;;;;9.88;7.55;;;;;;;18.96;70.32;100466.97;5000080;28;20038;-67
2021/08/24 02:00:43;;;;;;;10.13;7.95;;;;;;;18.96;70.36;100469.59;4995494;28;20030;-68
2021/08/24 02:03:12;;;;;;;12.32;8.18;;;;;;;18.82;70.78;100455.59;4982356;28;20030;-68
2021/08/24 02:05:41;;;;;;;;;;;;;;;18.80;70.89;100466.03;4995870;28;20460;-67
2021/08/24 02:08:11;;;;;;;14.60;8.63;;;;;;;18.89;70.12;100457.31;4999617;28;19921;-67
2021/08/24 02:10:37;;;;;;;16.05;8.18;;;;;;;19.03;69.30;100462.66;4993243;28;20034;-69
2021/08/24 02:13:04;;;;;;;12.98;7.72;;;;;;;19.03;69.35;100462.66;4992622;28;20030;-66
2021/08/24 02:15:37;;;;;;;11.48;8.15;;;;;;;18.91;69.55;100450.41;4983785;28;20510;-68
2021/08/24 02:18:05;;;;;;;12.05;7.95;;;;;;;18.54;70.01;100408.41;4993129;28;20069;-67
2021/08/24 02:20:37;;;;;;;10.07;8.05;;;;;;;18.89;69.82;100444.25;4992508;28;20104;-67
2021/08/24 02:23:12;;;;;;;13.50;8.38;;;;;;;19.12;69.07;100461.78;4992841;28;20377;-68
2021/08/24 02:25:42;;;;;;;11.02;7.70;;;;;;;18.88;69.53;100438.16;4992650;28;20046;-70
2021/08/24 02:28:13;;;;;;;13.10;7.32;;;;;;;18.80;70.17;100450.34;4992604;28;20034;-69
2021/08/24 02:30:46;;;;;;;10.05;7.75;;;;;;;18.75;71.10;100449.44;4992717;28;20054;-67
2021/08/24 02:33:12;;;;;;;11.27;8.15;;;;;;;18.87;71.10;100438.16;4992883;28;20034;-69
2021/08/24 02:35:50;;;;;;;9.10;7.65;;;;;;;19.00;71.24;100447.78;4992626;28;20030;-69
2021/08/24 02:38:22;;;;;;;9.45;8.20;;;;;;;18.97;70.99;100428.63;4992930;28;20120;-67
2021/08/24 02:41:12;;;;;;;10.25;7.75;;;;;;;19.30;69.89;100446.13;4992081;28;20054;-67
2021/08/24 02:44:09;;;;;;;11.88;8.60;;;;;;;19.48;69.19;100442.63;4992389;28;20035;-70
2021/08/24 02:46:40;;;;;;;12.70;7.95;;;;;;;19.40;68.15;100407.69;4992548;28;20061;-68
2021/08/24 02:49:10;;;;;;;9.63;7.63;;;;;;;19.72;67.60;100431.22;4992615;28;20019;-68
2021/08/24 02:51:37;;;;;;;10.93;7.72;;;;;;;19.92;67.21;100443.47;4992218;28;20035;-69
2021/08/24 02:54:24;;;;;;;15.10;7.88;;;;;;;20.00;66.90;100443.44;4992449;28;20478;-68
2021/08/24 02:56:50;;;;;;;10.95;7.75;;;;;;;20.11;66.08;100446.94;4992400;28;20034;-68
2021/08/24 02:59:15;;;;;;;10.45;7.65;;;;;;;20.26;65.51;100435.53;4991893;28;20117;-67
2021/08/24 03:01:41;;;;;;;10.93;7.57;;;;;;;20.30;65.25;100447.75;4992393;28;20026;-67
2021/08/24 03:04:08;;;;;;;15.95;8.50;;;;;;;20.13;65.32;100442.53;4992550;28;20480;-70
2021/08/24 03:06:41;;;;;;;9.80;7.78;;;;;;;19.91;65.66;100444.34;4992631;28;20392;-68
2021/08/24 03:09:10;;;;;;;13.18;8.43;;;;;;;19.72;66.29;100427.75;4992033;28;20081;-71
2021/08/24 03:11:40;;;;;;;15.23;7.80;;;;;;;19.76;65.97;100437.34;4992240;28;20097;-66
2021/08/24 03:14:21;;;;;;;18.35;8.68;;;;;;;19.91;64.81;100436.47;4992114;28;20034;-67
2021/08/24 03:16:53;;;;;;;10.35;8.20;;;;;;;19.92;64.65;100435.59;4979438;28;20105;-71
2021/08/24 03:19:24;;;;;;;14.95;7.90;;;;;;;20.01;63.64;100446.09;4991706;28;20026;-67
2021/08/24 03:21:50;;;;;;;15.18;7.90;;;;;;;20.01;62.79;100437.31;4991742;28;20026;-67
2021/08/24 03:24:18;;;;;;;15.23;7.25;;;;;;;19.88;63.09;100420.78;4991737;28;20057;-67
2021/08/24 03:26:46;;;;;;;16.77;8.70;;;;;;;19.99;62.71;100436.47;4991794;28;20022;-68
2021/08/24 03:29:18;;;;;;;18.58;8.38;;;;;;;19.84;63.08;100433.00;4992112;28;20454;-66
2021/08/24 03:31:48;;;;;;;19.63;8.00;;;;;;;19.76;63.51;100433.88;4991723;28;20029;-67
2021/08/24 03:34:13;;;;;;;18.55;7.78;;;;;;;19.60;63.40;100422.53;4991771;28;20054;-67
2021/08/24 03:36:39;;;;;;;15.75;7.78;;;;;;;19.69;63.18;100443.50;4992141;28;20057;-66
2021/08/24 03:39:04;;;;;;;17.13;8.35;;;;;;;19.73;62.88;100432.13;4991213;28;20034;-66
2021/08/24 03:41:29;;;;;;;16.35;8.50;;;;;;;19.74;62.93;100431.25;4995489;28;20061;-67
2021/08/24 03:43:55;;;;;;;21.52;8.90;;;;;;;19.81;63.29;100447.81;4995745;28;20035;-67
2021/08/24 03:46:20;;;;;;;18.80;8.57;;;;;;;19.71;63.67;100440.00;4986458;28;20066;-72
2021/08/24 03:48:46;;;;;;;17.35;8.32;;;;;;;19.88;63.63;100452.22;4995642;28;20025;-69
2021/08/24 03:51:11;;;;;;;20.40;8.18;;;;;;;19.75;63.19;100417.28;4995950;28;20461;-67
2021/08/24 03:53:37;;;;;;;20.25;8.65;;;;;;;19.92;62.39;100451.31;4995021;28;20026;-68
2021/08/24 03:56:05;;;;;;;20.05;9.45;;;;;;;19.77;62.90;100436.47;4977237;28;20034;-68
2021/08/24 03:58:31;;;;;;;19.38;8.70;;;;;;;19.79;62.91;100449.56;4976566;28;20061;-68
2021/08/24 04:00:56;;;;;;;18.60;7.80;;;;;;;19.66;63.35;100451.34;4976358;28;20027;-70
2021/08/24 04:03:22;;;;;;;22.73;9.40;;;;;;;19.68;62.80;100458.31;4976505;28;20423;-68
2021/08/24 04:05:47;;;;;;;17.58;8.35;;;;;;;19.60;63.08;100451.34;4976470;28;20034;-68
2021/08/24 04:08:13;;;;;;;15.77;8.38;;;;;;;19.58;63.26;100453.06;4976032;28;20066;-72
2021/08/24 04:10:40;;;;;;;15.10;8.45;;;;;;;19.45;62.74;100426.91;4976603;28;20027;-68
2021/08/24 04:13:05;;;;;;;17.50;8.35;;;;;;;19.61;63.09;100448.72;4976092;28;20062;-68
2021/08/24 04:15:31;;;;;;;16.10;8.70;;;;;;;19.70;62.64;100445.22;4976418;28;20058;-68
2021/08/24 04:17:56;;;;;;;18.92;8.23;;;;;;;19.34;63.05;100399.84;4976357;28;20031;-68
2021/08/24 04:20:22;;;;;;;19.15;8.23;;;;;;;19.49;63.03;100423.41;4975812;28;20027;-67
2021/08/24 04:22:49;;;;;;;19.38;9.10;;;;;;;19.56;62.69;100432.13;4975910;28;20035;-69
2021/08/24 04:25:16;;;;;;;19.40;8.88;;;;;;;19.71;62.46;100455.72;4976015;28;20492;-68
2021/08/24 04:27:43;;;;;;;21.60;8.50;;;;;;;19.70;62.46;100445.22;4976228;28;20041;-68
2021/08/24 04:30:09;;;;;;;17.45;9.23;;;;;;;19.77;62.53;100451.34;4976001;28;20027;-68
2021/08/24 04:32:37;;;;;;;20.55;9.10;;;;;;;19.72;62.87;100435.63;4973508;28;20046;-68
2021/08/24 04:35:04;;;;;;;20.05;8.88;;;;;;;19.75;63.08;100442.59;4976008;28;20062;-68
2021/08/24 04:37:30;;;;;;;17.92;9.13;;;;;;;19.71;63.50;100440.00;4975869;28;20039;-68
2021/08/24 04:39:55;;;;;;;17.38;9.18;;;;;;;19.43;64.15;100410.34;4975564;28;20051;-68
2021/08/24 04:42:21;;;;;;;18.45;8.38;;;;;;;19.46;64.88;100454.81;4975657;28;20027;-67
2021/08/24 04:44:46;;;;;;;9.82;8.55;;;;;;;19.52;65.31;100451.34;4975250;28;20066;-68
2021/08/24 04:47:12;;;;;;;13.35;8.98;;;;;;;19.60;64.99;100454.84;4975566;28;20466;-68
2021/08/24 04:49:38;;;;;;;16.58;9.38;;;;;;;19.60;65.46;100453.94;4975293;28;20026;-68
2021/08/24 04:52:03;;;;;;;16.77;9.30;;;;;;;19.37;66.34;100455.69;4975576;28;20054;-68
2021/08/24 04:54:35;;;;;;;13.80;9.13;;;;;;;18.67;68.90;100472.97;4975585;28;20019;-67
2021/08/24 04:57:05;;;;;;;11.82;9.38;;;;;;;18.75;68.54;100458.19;4975157;28;20050;-67
2021/08/24 04:59:31;;;;;;;11.52;8.68;;;;;;;18.88;68.30;100461.69;4972952;28;20038;-67
2021/08/24 05:01:56;;;;;;;11.18;9.43;;;;;;;18.79;68.04;100439.88;4989242;28;20424;-70
2021/08/24 05:04:23;;;;;;;13.65;9.65;;;;;;;19.02;68.54;100469.59;4975347;28;20385;-68
2021/08/24 05:06:50;;;;;;;15.02;10.07;;;;;;;19.02;68.38;100456.53;4975205;28;20034;-67
2021/08/24 05:09:16;;;;;;;14.57;11.20;;;;;;;19.20;68.24;100466.16;4975251;28;20113;-66
2021/08/24 05:11:41;;;;;;;14.82;10.45;;;;;;;19.20;68.21;100460.94;4975436;28;20114;-68
2021/08/24 05:14:06;;;;;;;19.65;10.85;;;;;;;19.20;69.09;100475.75;4975317;28;20054;-68
2021/08/24 05:16:32;;;;;;;18.45;11.15;;;;;;;19.34;68.75;100475.75;4975179;28;20114;-67
2021/08/24 05:18:57;;;;;;;19.08;10.43;;;;;;;19.43;68.94;100467.94;4989680;28;20034;-68
2021/08/24 05:21:23;;;;;;;15.95;11.93;;;;;;;19.51;69.09;100468.78;4990960;28;20034;-68
2021/08/24 05:23:48;;;;;;;34.25;14.45;;;;;;;19.56;69.70;100471.41;4994354;28;20022;-68
2021/08/24 05:26:20;;;;;;;27.45;13.80;;;;;;;19.55;70.33;100462.69;4994099;28;20038;-71
2021/08/24 05:28:46;;;;;;;20.00;12.60;;;;;;;19.60;70.74;100467.94;4976308;28;20105;-68
2021/08/24 05:31:13;;;;;;;24.55;12.05;;;;;;;19.71;71.08;100465.28;4983110;28;20037;-68
2021/08/24 05:33:38;;;;;;;28.83;12.32;;;;;;;19.77;71.70;100457.44;4993992;28;20118;-70
2021/08/24 05:36:04;;;;;;;19.77;12.30;;;;;;;19.89;71.88;100461.81;4989969;28;20121;-70
2021/08/24 05:38:31;;;;;;;17.88;11.80;;;;;;;20.18;70.97;100474.00;4994198;28;20492;-68
2021/08/24 05:41:03;;;;;;;25.92;12.85;;;;;;;20.23;69.91;100456.50;4986802;28;20174;-68
2021/08/24 05:43:28;;;;;;;22.48;10.93;;;;;;;20.18;69.69;100429.44;4974621;28;20110;-73
2021/08/24 05:45:55;;;;;;;19.48;10.43;;;;;;;20.47;69.74;100466.03;4974607;28;20130;-69
2021/08/24 05:48:22;;;;;;;15.20;9.88;;;;;;;20.58;69.93;100468.59;4974135;28;20541;-70
2021/08/24 05:50:47;;;;;;;22.77;9.93;;;;;;;19.87;71.93;100422.50;4974364;28;20037;-68
2021/08/24 05:53:13;;;;;;;13.05;9.57;;;;;;;20.01;72.55;100479.25;4974340;28;20018;-69
2021/08/24 05:55:38;;;;;;;14.65;9.05;;;;;;;20.24;72.14;100473.09;4974425;28;20099;-69
2021/08/24 05:58:04;;;;;;;14.32;8.70;;;;;;;20.24;72.21;100458.25;4974278;28;20029;-68
2021/08/24 06:00:29;;;;;;;12.50;9.32;;;;;;;20.58;71.27;100470.38;4974157;28;20049;-68
2021/08/24 06:02:55;;;;;;;10.88;8.77;;;;;;;20.64;71.29;100472.97;4978544;28;20030;-69
2021/08/24 06:05:20;;;;;;;13.00;8.57;;;;;;;20.81;71.00;100470.25;4974528;28;20037;-69
2021/08/24 06:07:46;;;;;;;10.18;8.05;;;;;;;20.91;70.45;100444.84;4974073;28;20450;-69
2021/08/24 06:10:11;;;;;;;13.40;8.55;;;;;;;21.13;69.49;100454.34;4974118;28;20037;-69
2021/08/24 06:12:37;;;;;;;11.73;8.55;;;;;;;21.34;68.79;100449.81;4974143;28;20106;-69
2021/08/24 06:15:04;;;;;;;13.93;7.80;;;;;;;21.22;67.75;100410.50;4977146;28;20030;-69
2021/08/24 06:17:29;;;;;;;13.50;8.02;;;;;;;21.53;68.11;100453.13;4980949;28;20023;-72
2021/08/24 06:19:54;;;;;;;15.52;8.23;;;;;;;21.50;68.31;100450.56;4991235;28;20447;-74
2021/08/24 06:22:20;;;;;;;15.73;8.57;;;;;;;21.72;68.16;100451.28;4992758;28;20034;-69
2021/08/24 06:24:46;;;;;;;11.32;7.60;;;;;;;21.53;68.67;100457.53;4992402;28;20034;-69
2021/08/24 06:27:11;;;;;;;13.07;8.60;;;;;;;21.46;69.58;100467.22;4992266;28;20031;-69
2021/08/24 06:29:36;;;;;;;12.20;8.23;;;;;;;21.43;69.44;100447.13;4973745;28;20041;-71
2021/08/24 06:32:05;;;;;;;11.68;7.57;;;;;;;21.64;69.77;100453.09;4981631;28;20093;-69
2021/08/24 06:34:33;;;;;;;13.35;7.85;;;;;;;21.70;69.63;100453.03;4974258;28;20464;-69
2021/08/24 06:36:58;;;;;;;12.10;7.80;;;;;;;21.71;69.18;100448.63;5002521;28;20061;-71
2021/08/24 06:39:24;;;;;;;11.88;7.90;;;;;;;21.61;69.11;100411.97;4974229;28;20034;-71
2021/08/24 06:41:50;;;;;;;13.85;8.23;;;;;;;22.13;67.86;100451.72;4980950;28;20034;-67
2021/08/24 06:44:17;;;;;;;9.57;7.55;;;;;;;22.29;67.53;100447.16;4990820;28;20026;-74
2021/08/24 06:46:43;;;;;;;9.95;7.45;;;;;;;22.52;67.14;100459.19;4979158;28;20105;-72
2021/08/24 06:49:08;;;;;;;11.43;7.57;;;;;;;22.57;66.54;100447.72;4986606;28;20173;-75
2021/08/24 06:51:36;;;;;;;17.52;8.35;;;;;;;22.74;66.53;100465.94;4983614;28;20041;-77
2021/08/24 06:54:02;;;;;;;12.43;7.40;;;;;;;22.81;66.17;100437.75;4975487;28;20118;-74
2021/08/24 06:56:29;;;;;;;10.90;7.32;;;;;;;23.01;65.80;100450.63;4986666;28;20030;-74
2021/08/24 06:58:54;;;;;;;11.75;7.63;;;;;;;23.22;65.43;100448.59;4981420;28;20057;-74
2021/08/24 07:01:23;;;;;;;9.82;7.40;;;;;;;23.37;64.50;100452.75;4990213;28;20737;-70
2021/08/24 07:03:49;;;;;;;9.05;7.18;;;;;;;23.28;64.54;100448.50;4994952;28;20026;-73
2021/08/24 07:06:15;;;;;;;13.57;7.95;;;;;;;23.26;66.01;100438.00;4992653;28;20110;-72
2021/08/24 07:08:41;;;;;;;13.13;7.28;;;;;;;23.04;64.71;100403.19;4991779;28;20058;-75
2021/08/24 07:11:07;;;;;;;10.88;7.20;;;;;;;23.29;66.13;100450.25;4981800;28;20106;-75
2021/08/24 07:13:35;;;;;;;12.50;7.57;;;;;;;23.55;64.19;100438.38;4988266;28;20094;-72
2021/08/24 07:16:04;;;;;;;14.65;8.18;;;;;;;23.55;65.72;100426.09;4991272;28;20126;-72
2021/08/24 07:18:29;;;;;;;15.35;6.95;;;;;;;23.68;64.96;100441.69;4991484;28;20563;-73
2021/08/24 07:20:55;;;;;;;14.35;7.07;;;;;;;23.62;64.32;100397.00;4991527;28;20034;-71
2021/08/24 07:23:21;;;;;;;9.38;6.43;;;;;;;23.99;63.85;100436.75;4981629;28;20515;-73
2021/08/24 07:25:47;;;;;;;12.30;7.25;;;;;;;24.00;62.79;100422.66;4975948;28;20033;-78
2021/08/24 07:28:13;;;;;;;11.30;6.72;;;;;;;24.31;62.52;100432.59;4983878;28;20030;-78
2021/08/24 07:30:42;;;;;;;11.25;6.85;;;;;;;24.49;61.29;100428.69;4991244;28;20426;-76
2021/08/24 07:33:08;;;;;;;8.40;6.53;;;;;;;24.51;60.84;100426.91;5005340;28;20042;-78
2021/08/24 07:35:35;;;;;;;10.40;6.93;;;;;;;24.68;60.75;100429.19;4991089;28;20081;-78
2021/08/24 07:38:03;;;;;;;9.77;6.75;;;;;;;24.65;60.40;100436.31;4990305;28;20129;-80
2021/08/24 07:40:30;;;;;;;8.82;6.63;;;;;;;24.47;63.07;100432.28;4990098;28;20564;-76
2021/08/24 07:42:56;;;;;;;8.63;6.50;;;;;;;24.43;59.40;100381.31;4991911;28;20456;-75
2021/08/24 07:45:22;;;;;;;13.10;6.45;;;;;;;24.94;58.42;100425.09;4991514;28;20454;-75
2021/08/24 07:47:48;;;;;;;7.35;5.70;;;;;;;24.76;58.04;100423.75;4991203;28;20026;-73
2021/08/24 07:50:14;;;;;;;8.80;6.35;;;;;;;24.48;59.29;100389.16;4995803;28;20030;-77
2021/08/24 07:52:40;;;;;;;10.52;5.78;;;;;;;24.98;57.01;100418.81;4991441;28;20030;-72
2021/08/24 07:55:08;;;;;;;7.30;6.20;;;;;;;25.21;56.36;100417.41;4981965;28;20042;-74
2021/08/24 07:57:33;;;;;;;9.40;6.10;;;;;;;25.30;55.96;100425.09;4984811;28;20030;-75
2021/08/24 08:00:00;;;;;;;8.05;6.20;;;;;;;25.44;55.42;100431.84;4990978;28;20037;-75
2021/08/24 08:02:25;;;;;;;9.48;7.38;;;;;;;25.55;55.10;100410.44;4989557;28;20492;-74
2021/08/24 08:04:51;;;;;;;11.98;8.13;;;;;;;25.54;54.63;100414.84;4976212;28;20120;-75
2021/08/24 08:07:17;;;;;;;9.50;7.40;;;;;;;25.63;53.26;100403.16;4974377;28;20038;-74
2021/08/24 08:09:43;;;;;;;11.10;7.95;;;;;;;25.70;53.58;100414.47;4986532;28;20030;-73
2021/08/24 08:12:09;;;;;;;12.70;7.70;;;;;;;25.75;52.73;100408.13;4991003;28;20041;-75
2021/08/24 08:14:35;;;;;;;9.73;7.47;;;;;;;25.79;54.18;100409.75;4991243;28;20023;-72
2021/08/24 08:17:01;;;;;;;10.70;6.82;;;;;;;25.86;52.39;100413.13;4991553;28;20041;-73
2021/08/24 08:19:27;;;;;;;10.55;7.03;;;;;;;25.89;51.64;100409.53;4989677;28;20026;-76
2021/08/24 08:21:53;;;;;;;11.13;6.28;;;;;;;26.05;51.64;100392.31;4990957;28;20093;-73
2021/08/24 08:24:19;;;;;;;7.55;6.10;;;;;;;26.13;51.16;100403.56;4990945;28;20456;-75
2021/08/24 08:26:44;;;;;;;8.63;6.25;;;;;;;26.24;50.57;100384.72;4994811;28;20057;-73
2021/08/24 08:29:11;;;;;;;11.07;6.38;;;;;;;26.20;49.94;100359.28;4994813;28;20061;-74
2021/08/24 08:31:43;;;;;;;8.80;5.75;;;;;;;26.48;49.45;100391.06;4994662;28;20037;-71
2021/08/24 08:34:10;;;;;;;8.80;6.15;;;;;;;26.68;50.88;100394.91;4976190;28;20038;-72
2021/08/24 08:36:36;;;;;;;11.10;4.90;;;;;;;26.64;47.00;100357.06;4992128;28;20038;-71
2021/08/24 08:39:02;;;;;;;6.75;4.72;;;;;;;27.10;44.25;100389.16;4976427;28;20066;-71
2021/08/24 08:41:59;;;;;;;8.40;5.70;;;;;;;27.07;47.18;100378.66;4991976;28;20054;-73
2021/08/24 08:44:53;;;;;;;9.73;5.60;;;;;;;27.06;46.65;100381.34;4975734;28;20497;-71
2021/08/24 08:47:47;;;;;;;7.43;4.55;;;;;;;27.22;44.98;100371.97;4992122;28;20030;-70
2021/08/24 08:50:39;;;;;;;7.50;4.80;;;;;;;27.20;46.01;100344.63;4912979;29;20235;-73
2021/08/24 08:53:32;;;;;;;7.00;4.80;;;;;;;27.57;44.33;100369.06;4911019;29;20050;-72
2021/08/24 08:56:08;;;;;;;6.25;4.20;;;;;;;27.61;42.49;100370.66;4910811;29;20126;-71
2021/08/24 08:58:51;;;;;;;9.38;4.50;;;;;;;27.75;43.81;100372.81;4910862;29;20044;-72
2021/08/24 09:01:48;;;;;;;11.25;4.05;;;;;;;27.94;40.05;100373.03;4914530;29;20048;-72
2021/08/24 09:04:31;;;;;;;4.68;3.40;;;;;;;27.94;34.73;100370.38;4832274;29;20505;-73
2021/08/24 09:07:00;;;;;;;5.55;3.40;;;;;;;28.04;34.65;100363.81;4820999;29;20129;-72
2021/08/24 09:09:27;;;;;;;5.07;3.87;;;;;;;28.17;34.24;100364.22;4830905;29;20048;-78
2021/08/24 09:12:14;;;;;;;5.45;3.78;;;;;;;28.37;35.37;100363.44;4814598;29;20081;-70
2021/08/24 09:14:52;;;;;;;5.55;3.78;;;;;;;28.58;34.79;100358.22;4857364;29;20076;-73
2021/08/24 09:17:40;;;;;;;5.53;3.53;;;;;;;28.55;36.62;100327.34;4853325;29;20115;-71
2021/08/24 09:20:30;;;;;;;5.32;3.60;;;;;;;28.64;35.53;100335.88;4858081;29;20045;-70
2021/08/24 09:22:56;;;;;;;6.50;3.60;;;;;;;28.80;36.74;100347.63;4858342;29;20171;-75
2021/08/24 09:26:05;;;;;;;6.07;3.95;;;;;;;28.83;35.91;100350.16;4858168;29;20120;-71
2021/08/24 09:28:33;;;;;;;6.60;3.65;;;;;;;28.70;36.09;100351.59;4876759;29;20393;-70
2021/08/24 09:31:00;;;;;;;5.75;3.80;;;;;;;28.70;31.92;100341.81;4881892;29;20049;-67
2021/08/24 09:33:28;;;;;;;7.60;3.70;;;;;;;28.88;34.74;100344.66;4876639;29;20485;-74
2021/08/24 09:35:55;;;;;;;6.17;3.80;;;;;;;28.99;35.98;100333.59;4876380;29;20053;-70
2021/08/24 09:38:29;;;;;;;3.72;2.90;;;;;;;29.27;32.16;100340.38;4879672;29;20041;-74
2021/08/24 09:40:57;;;;;;;5.35;3.50;;;;;;;29.33;29.79;100330.34;4905358;29;20054;-72
2021/08/24 09:43:33;;;;;;;6.80;3.10;;;;;;;29.44;29.24;100326.38;4909570;29;20115;-73
2021/08/24 09:46:16;;;;;;;792.38;154.95;;;;;;;29.49;29.00;100324.38;4911514;29;20048;-74
2021/08/24 09:48:58;;;;;;;19.73;5.55;;;;;;;29.71;33.88;100334.91;4906536;29;20103;-75
2021/08/24 09:51:36;;;;;;;7.57;4.22;;;;;;;29.41;33.29;100275.97;4913500;29;20044;-73
2021/08/24 09:54:06;;;;;;;5.03;3.67;;;;;;;29.75;30.59;100331.19;4904563;29;20046;-80
2021/08/24 09:56:39;;;;;;;6.85;3.78;;;;;;;29.79;30.52;100323.91;4910624;29;20028;-83
2021/08/24 09:59:05;;;;;;;5.25;3.60;;;;;;;29.80;31.01;100286.59;4952201;28;20038;-85
2021/08/24 10:01:51;;;;;;;5.85;3.83;;;;;;;30.24;30.71;100321.88;4991316;28;20045;-82
2021/08/24 10:04:17;;;;;;;7.22;3.65;;;;;;;30.20;29.30;100285.69;4981362;28;20050;-85
2021/08/24 10:07:06;;;;;;;5.07;3.70;;;;;;;30.59;29.58;100316.66;4979071;28;20452;-83
2021/08/24 10:09:42;;;;;;;5.28;3.67;;;;;;;30.76;30.76;100306.03;4988525;28;20037;-87
2021/08/24 10:12:22;;;;;;;6.43;3.70;;;;;;;30.86;27.72;100316.25;4980504;28;20143;-72
2021/08/24 10:14:49;;;;;;;7.70;4.00;;;;;;;30.73;28.16;100276.00;4991835;28;20121;-73
2021/08/24 10:17:34;;;;;;;9.30;4.22;;;;;;;30.88;27.53;100304.56;4992879;28;20026;-72
2021/08/24 10:20:23;;;;;;;12.30;4.25;;;;;;;30.95;27.67;100305.09;5009541;28;20046;-72
2021/08/24 10:22:52;;;;;;;7.78;3.70;;;;;;;30.68;30.97;100302.91;4990469;28;20100;-66
2021/08/24 10:25:27;;;;;;;8.32;3.88;;;;;;;30.62;29.57;100290.75;4989795;28;20038;-75
2021/08/24 10:28:25;;;;;;;12.00;4.13;;;;;;;30.65;28.35;100308.38;4985070;28;20468;-74
2021/08/24 10:31:38;;;;;;;12.90;4.70;;;;;;;31.00;27.07;100300.41;4953726;28;20512;-75
2021/08/24 10:34:24;;;;;;;18.75;4.88;;;;;;;31.03;27.66;100294.03;4965015;28;20070;-71
2021/08/24 10:36:50;;;;;;;5.90;3.92;;;;;;;31.23;26.47;100293.91;4969381;28;20038;-70
2021/08/24 10:39:26;;;;;;;6.47;3.97;;;;;;;31.49;26.08;100298.81;4968031;28;20043;-73
2021/08/24 10:42:15;;;;;;;8.57;4.10;;;;;;;31.07;26.97;100248.53;4971501;28;20421;-72
2021/08/24 10:45:03;;;;;;;5.95;3.88;;;;;;;31.62;27.04;100291.88;4964799;28;20031;-73
2021/08/24 10:47:59;;;;;;;10.63;3.75;;;;;;;31.91;25.22;100284.94;4964697;28;20114;-72
2021/08/24 10:50:47;;;;;;;10.60;3.90;;;;;;;32.12;25.17;100281.19;4912947;29;20032;-75
2021/08/24 10:53:41;;;;;;;9.63;4.10;;;;;;;32.12;24.80;100276.69;4909818;29;20040;-74
2021/08/24 10:56:27;;;;;;;6.95;3.60;;;;;;;32.19;24.78;100269.19;4842155;29;20033;-70
2021/08/24 10:59:05;;;;;;;12.05;4.10;;;;;;;32.35;24.46;100272.75;4840724;29;20081;-74
2021/08/24 11:01:33;;;;;;;5.82;3.47;;;;;;;32.41;24.68;100268.84;4865591;29;20512;-70
2021/08/24 11:04:15;;;;;;;8.20;4.30;;;;;;;32.62;24.11;100263.22;4856166;29;20460;-73
2021/08/24 11:06:49;;;;;;;8.73;3.60;;;;;;;32.54;24.16;100264.53;4853284;29;20118;-70
2021/08/24 11:09:37;;;;;;;10.82;4.35;;;;;;;32.48;24.50;100256.03;4856023;29;20200;-73
2021/08/24 11:12:19;;;;;;;7.53;3.60;;;;;;;31.75;26.28;100260.94;4855020;29;20041;-72
2021/08/24 11:15:03;;;;;;;6.05;3.75;;;;;;;31.94;25.58;100254.56;4856028;29;20049;-76
2021/08/24 11:17:58;;;;;;;6.03;3.53;;;;;;;32.03;26.86;100264.72;4856114;29;20033;-73
2021/08/24 11:20:48;;;;;;;5.38;3.40;;;;;;;32.40;25.83;100251.09;4851886;29;20056;-74
2021/08/24 11:23:29;;;;;;;7.88;3.40;;;;;;;32.68;24.03;100249.50;4856442;29;20141;-74
2021/08/24 11:26:17;;;;;;;10.27;3.95;;;;;;;32.72;23.31;100227.81;4863771;29;21062;-72
2021/08/24 11:29:20;;;;;;;5.80;3.47;;;;;;;33.10;23.02;100245.22;4925006;29;20024;-69
2021/08/24 11:32:30;;;;;;;10.07;3.90;;;;;;;32.90;23.01;100241.09;4914057;29;20474;-71
2021/08/24 11:34:55;;;;;;;6.43;3.53;;;;;;;32.61;23.25;100235.63;5009561;28;20029;-70
2021/08/24 11:37:26;;;;;;;8.45;3.53;;;;;;;32.96;22.71;100231.81;5009731;28;20029;-73
2021/08/24 11:40:12;;;;;;;5.32;3.70;;;;;;;32.78;22.96;100223.97;5028343;28;20053;-70
2021/08/24 11:42:45;;;;;;;7.63;4.10;;;;;;;32.64;23.36;100214.06;5028261;28;20621;-72